Sciota, Illinois
Current Conditions -  °F | °C
As of 12:15 AM on Thursday 29 Jan 2015 (Local Time) from KMQB Reporting Station
Clear Clear  
Wind Chill: 29°   Ceiling: Unl
Heat Index: 38°   Visibility: 10mi
Dew Point: 34°   Wind: 17mph
Humidity: 84%   Direction: 170°S
Pressure: 29.71"   Gusts: NA
Location:  40.56°N, 90.75°W
Report Text: KMQB 290615Z AUTO 17015KT 10SM CLR 04/01 A2971 RMK AO2 T00360011
Loading
Personal Weather Stations






























Interactive Weather Map New forecast layout! Learn more

10-Day Weather Forecast

Advertisements
Track Severe Weather on mobile